Penn State University, Pennsylvania
Current Conditions -  °F | °C
As of 9:53 AM on Wednesday 22 Oct 2014 (Local Time) from KUNV Reporting Station
Overcast Overcast  
Wind Chill: 43°   Ceiling: 1400
Heat Index: 48°   Visibility: 10mi
Dew Point: 43°   Wind: 12mph
Humidity: 82%   Direction: 30°NNE
Pressure: 30.06"   Gusts: NA
Location:  40.8092°N, 77.8868°W
Report Text: KUNV 221353Z 03010KT 10SM OVC014 09/06 A3006
Loading
Personal Weather Stations






























Interactive Weather Map
Tropical Storm Tracking
New forecast layout! Learn more

10-Day Weather Forecast

Advertisements
Track Severe Weather on mobile